Flight Track Log - Related Links

Times and Time Zones

All times are in EDT time to prevent confusion due to time zone crossing. See the DAL6232 flight status page for this flight to view local times or setup timezone preferences in your user account.

Time Position Orientation Groundspeed Altitude Reporting Facility
EDT Latitude Longitude Course Direction KTS MPH feet Rate Location/Type
Wed 07:42:20 AM 44.8500 -63.5000 235° Southwest 150 173 1,100  Level Moncton Center
Wed 07:43:20 AM 44.8167 -63.5667 235° Southwest 210 242 3,000 2,150 Climbing Moncton Center
Wed 07:44:20 AM 44.8000 -63.6667 257° West 260 299 5,400 2,650 Climbing Moncton Center
Wed 07:45:20 AM 44.7667 -63.7833 248° West 280 322 8,300 2,800 Climbing Moncton Center
Wed 07:46:20 AM 44.7500 -63.8833 257° West 300 345 11,000 2,150 Climbing Moncton Center
Wed 07:47:20 AM 44.7167 -64.0000 248° West 330 380 12,600 1,750 Climbing Moncton Center
Wed 07:48:20 AM 44.6833 -64.1667 254° West 370 426 14,500 1,900 Climbing Moncton Center
Wed 07:49:20 AM 44.6500 -64.3000 251° West 390 449 16,400 1,950 Climbing Moncton Center
Wed 07:50:20 AM 44.6333 -64.4667 262° West 400 460 18,400 1,650 Climbing Moncton Center
Wed 07:51:20 AM 44.6000 -64.6167 253° West 410 472 19,700 1,450 Climbing Moncton Center
Wed 07:52:20 AM 44.6000 -64.7667 270° West 410 472 21,300 1,550 Climbing Moncton Center
Wed 07:53:20 AM 44.5833 -64.9333 262° West 420 483 22,800 1,400 Climbing Moncton Center
Wed 07:54:20 AM 44.6000 -65.1000 278° West 420 483 24,100 1,250 Climbing Moncton Center
Wed 07:55:20 AM 44.6167 -65.2667 278° West 430 495 25,300 1,100 Climbing Moncton Center
Wed 07:56:20 AM 44.6333 -65.4333 278° West 440 506 26,300 1,000 Climbing Moncton Center
Wed 07:57:20 AM 44.6333 -65.6000 270° West 440 506 27,300 1,000 Climbing Moncton Center
Wed 07:58:20 AM 44.6500 -65.7833 277° West 440 506 28,300 1,100 Climbing Moncton Center
Wed 07:59:20 AM 44.6667 -65.9500 278° West 440 506 29,500 1,100 Climbing Moncton Center
Wed 08:00:20 AM 44.6667 -66.1333 270° West 440 506 30,500 1,000 Climbing Moncton Center
Wed 08:01:20 AM 44.6833 -66.3000 278° West 440 506 31,500 1,000 Climbing Moncton Center
Wed 08:02:20 AM 44.7000 -66.4667 278° West 440 506 32,500 1,000 Climbing Moncton Center
Wed 08:03:20 AM 44.7000 -66.6333 270° West 440 506 33,500 750 Climbing Moncton Center
Wed 08:04:20 AM 44.7167 -66.8000 278° West 440 506 34,000 250 Climbing Moncton Center
Wed 08:05:20 AM 44.7333 -66.9833 277° West 440 506 34,000  Level Moncton Center
Wed 08:06:20 AM 44.7333 -67.1500 270° West 440 506 34,000  Level Moncton Center
Wed 08:07:20 AM 44.7500 -67.3333 277° West 450 518 34,000  Level Moncton Center
Wed 08:08:26 AM 44.7736 -67.5264 280° West 454 522 34,000  Level Boston Center
Wed 08:09:26 AM 44.7369 -67.7019 254° West 461 531 34,000  Level Boston Center
Wed 08:10:26 AM 44.6892 -67.8578 247° West 472 543 34,000  Level Boston Center
Wed 08:11:26 AM 44.6417 -68.0281 249° West 472 543 34,000  Level Boston Center
Wed 08:12:26 AM 44.5917 -68.1981 248° West 477 549 34,000  Level Boston Center
Wed 08:13:26 AM 44.5394 -68.3708 247° West 477 549 34,000  Level Boston Center
Wed 08:14:26 AM 44.4892 -68.5403 247° West 482 555 34,000  Level Boston Center
Wed 08:15:26 AM 44.4367 -68.7153 247° West 482 555 34,000  Level Boston Center
Wed 08:16:26 AM 44.3800 -68.9019 247° West 482 555 34,000  Level Boston Center
Wed 08:17:26 AM 44.3289 -69.0733 247° West 482 555 34,000  Level Boston Center
Wed 08:18:26 AM 44.2772 -69.2417 247° West 482 555 34,000  Level Boston Center
Wed 08:19:26 AM 44.2236 -69.4156 247° West 482 555 34,000  Level Boston Center
Wed 08:20:26 AM 44.1697 -69.5861 246° West 487 560 34,000  Level Boston Center
Wed 08:21:26 AM 44.1175 -69.7533 247° West 487 560 34,000  Level Boston Center
Wed 08:22:26 AM 44.0631 -69.9264 246° West 487 560 34,000  Level Boston Center
Wed 08:23:26 AM 44.0103 -70.0933 246° West 487 560 34,000  Level Boston Center
Wed 08:24:26 AM 43.9533 -70.2686 246° West 487 560 34,000  Level Boston Center
Wed 08:25:26 AM 43.9142 -70.4111 249° West 487 560 34,000  Level Boston Center
Wed 08:26:26 AM 43.8506 -70.5919 244° Southwest 487 560 34,000  Level Boston Center
Wed 08:27:26 AM 43.7947 -70.7603 245° Southwest 487 560 34,000  Level Boston Center
Wed 08:28:26 AM 43.7389 -70.9314 246° West 487 560 34,000  Level Boston Center
Wed 08:29:26 AM 43.6825 -71.0994 245° Southwest 487 560 34,000  Level Boston Center
Wed 08:30:26 AM 43.6242 -71.2872 247° West 481 554 34,000  Level Boston Center
Wed 08:31:26 AM 43.5675 -71.4572 245° Southwest 486 559 34,000  Level Boston Center
Wed 08:32:26 AM 43.5083 -71.6300 245° Southwest 486 559 34,000  Level Boston Center
Wed 08:33:26 AM 43.4531 -71.7994 246° West 486 559 34,000  Level Boston Center
Wed 08:34:26 AM 43.3936 -71.9714 245° Southwest 486 559 34,000  Level Boston Center
Wed 08:35:26 AM 43.3358 -72.1433 245° Southwest 486 559 34,000  Level Boston Center
Wed 08:36:26 AM 43.2778 -72.3147 245° Southwest 486 559 34,000  Level Boston Center
Wed 08:37:26 AM 43.2194 -72.4856 245° Southwest 491 565 34,000 -100 Level Boston Center
Wed 08:38:26 AM 43.1589 -72.6564 244° Southwest 496 571 33,800 -800 Descending Boston Center
Wed 08:39:26 AM 43.1042 -72.8042 243° Southwest 491 565 32,400 -1,550 Descending Boston Center
Wed 08:40:26 AM 43.0472 -72.9656 244° Southwest 485 558 30,700 -1,800 Descending Boston Center
Wed 08:41:26 AM 42.9983 -73.1528 250° West 485 558 28,800 -1,950 Descending Boston Center
Wed 08:42:26 AM 43.0014 -73.3231 271° West 450 518 26,800 -2,050 Descending Boston Center
Wed 08:43:26 AM 42.9564 -73.4811 249° West 445 512 24,700 -2,050 Descending Boston Center
Wed 08:44:26 AM 42.8694 -73.6158 229° Southwest 452 520 22,700 -2,050 Descending Boston Center
Wed 08:45:26 AM 42.7825 -73.7469 228° Southwest 465 535 20,600 -1,950 Descending Boston Center
Wed 08:46:26 AM 42.6736 -73.7983 199° South 428 493 18,800 -1,300 Descending Boston Center
Wed 08:47:26 AM 42.5656 -73.7650 167° South 410 472 18,000 -400 Descending Boston Center
Wed 08:48:26 AM 42.4389 -73.7397 172° South 420 483 18,000  Level Boston Center
Wed 08:49:26 AM 42.3325 -73.7433 181° South 426 490 18,000  Level Boston Center
Wed 08:50:26 AM 42.2011 -73.7572 184° South 426 490 18,000  Level Boston Center
Wed 08:51:26 AM 42.0944 -73.7719 186° South 426 490 18,000  Level Boston Center
Wed 08:52:26 AM 41.9756 -73.7889 186° South 426 490 18,000  Level Boston Center
Wed 08:53:26 AM 41.8567 -73.8058 186° South 426 490 18,000 -50 Level Boston Center
Wed 08:54:26 AM 41.7439 -73.8089 181° South 420 483 17,900 -1,567 Descending Boston Center
Wed 08:55:40 AM 41.6167 -73.8000 177° South 356 410 14,500 -2,597 Descending New York TRACON
Wed 08:56:40 AM 41.5167 -73.8000 180° South 341 392 12,100 -2,050 Descending New York TRACON
Wed 08:57:40 AM 41.4333 -73.8333 197° South 315 362 10,400 -1,684 Descending New York TRACON
Wed 08:58:34 AM 41.3500 -73.8667 197° South 294 338 8,900 -1,737 Descending New York TRACON
Wed 08:59:34 AM 41.2833 -73.8833 191° South 283 326 7,100 -1,789 Descending New York TRACON
Wed 09:00:28 AM 41.2167 -73.8833 180° South 271 312 5,500 -1,579 Descending New York TRACON
Wed 09:01:28 AM 41.1333 -73.9000 189° South 264 304 4,100 -750 Descending New York TRACON
Wed 09:02:28 AM 41.0667 -73.9000 180° South 241 277 4,000 -50 Descending New York TRACON
Wed 09:03:28 AM 41.0000 -73.9000 180° South 226 260 4,000  Level New York TRACON
Wed 09:04:22 AM 40.9500 -73.9167 194° South 229 264 4,000  Level New York TRACON
Wed 09:05:22 AM 40.8833 -73.9333 191° South 229 264 4,000  Level New York TRACON
Wed 09:06:22 AM 40.8333 -73.9667 207° Southwest 231 266 4,000  Level New York TRACON
Wed 09:07:22 AM 40.7833 -74.0000 207° Southwest 205 236 4,000  Level New York TRACON
Wed 09:08:16 AM 40.7333 -74.0333 207° Southwest 202 232 4,000  Level New York TRACON
Wed 09:09:16 AM 40.6833 -74.0667 207° Southwest 205 236 4,000  Level New York TRACON
Wed 09:10:16 AM 40.6333 -74.1167 217° Southwest 207 238 4,000  Level New York TRACON
Wed 09:11:16 AM 40.5833 -74.1500 207° Southwest 207 238 4,000 -211 Level New York TRACON
Wed 09:12:10 AM 40.5500 -74.1167 143° Southeast 195 224 3,600 -526 Descending New York TRACON
Wed 09:13:10 AM 40.5667 -74.0500 72° East 177 204 3,000 -300 Descending New York TRACON
Wed 09:14:10 AM 40.6000 -74.0167 37° Northeast 170 196 3,000  Level New York TRACON
Wed 09:15:10 AM 40.6500 -73.9833 27° Northeast 169 194 3,000  Level New York TRACON

Login

Don't have an account? Register now (free) for customized features, flight alerts, and more!